Portada
METAR-TAF:

METAR-TAF

Aeroports :

Roi Et, Tailàndia

latitud: 16-07-00N, longitud: 103-46-26E, altitud: 138 m

Observació

L'informe es va fer fa 29 minuts, a les 03:00 UTC
Vent 3 kt del Sud/Sud-Est, variant entre Est i Sud
Temperatura 28°C
Humitat 79%
Pressió 1011 hPa
Visibilitat: 9000 m
Cel ennuvolat a una alçada de 2500 ft

METAR: VTUV 240300Z 15003KT 100V190 9000 BKN025 28/24 Q1011 NOSIG

Hora: 10:29 (03:29 UTC)

Pronòstic

L'informe es va fer fa 4 hores i 29 minuts, a les 23:00 UTC
Pronòstic vàlid del 24 a les 00 UTC al 24 a les 24 UTC
Vent 5 kt del Sud/Sud-Oest
Visibilitat: 9000 m
Escasses núvols a una alçada de 2500 ft
Temporalment
l' 24 a les 07 UTC al 24 a les 10 UTC
Vent 10 kt amb direcció variable
Visibilitat: 5000 m
Escasses núvols a una alçada de 2000 ft, Cumulonimbus.
Núvols disperses a una alçada de 2500 ft
Cel ennuvolat a una alçada de 10000 ft
tempesta, pluja

TAF: VTUV 232300Z 2400/2424 20005KT 9000 FEW025 TEMPO 2407/2410 VRB10KT 5000 TSRA FEW020CB SCT025 BKN100

Observacions i pronòstics meteorològics de més de 4000 aeroports (METAR i TAF).

Les estacions disponibles són els punts grocs i vermells al mapa.

Posi el ratolí al punt desitjat per veure el nom de l'estació.

Feu clic per veure les observacions i els pronòstics meteorològics.

Per canviar el mapa: feu clic els botons verds amb una creu de color negre per apropar; al botó verd amb un guió per allunyar la imatge; o en les fletxes verdes per a mapes adjacents.


METAR-TAF: